sensor_id;sensor_type;location;lat;lon;timestamp;P1;durP1;ratioP1;P2;durP2;ratioP2
7340;SDS011;6870;50.944;6.932;2022-08-11T00:01:11;4.30;;;2.50;;
7340;SDS011;6870;50.944;6.932;2022-08-11T00:03:43;6.50;;;2.60;;
7340;SDS011;6870;50.944;6.932;2022-08-11T00:06:15;3.60;;;2.90;;
7340;SDS011;6870;50.944;6.932;2022-08-11T00:08:51;3.47;;;2.60;;
7340;SDS011;6870;50.944;6.932;2022-08-11T00:11:21;4.37;;;2.60;;
7340;SDS011;6870;50.944;6.932;2022-08-11T00:13:59;3.83;;;2.60;;
7340;SDS011;6870;50.944;6.932;2022-08-11T00:16:29;4.40;;;2.30;;
7340;SDS011;6870;50.944;6.932;2022-08-11T00:18:58;4.20;;;2.90;;
7340;SDS011;6870;50.944;6.932;2022-08-11T00:21:28;6.77;;;2.77;;
7340;SDS011;6870;50.944;6.932;2022-08-11T00:24:17;4.47;;;2.90;;
7340;SDS011;6870;50.944;6.932;2022-08-11T00:26:47;5.10;;;2.83;;
7340;SDS011;6870;50.944;6.932;2022-08-11T00:29:16;6.33;;;3.33;;
7340;SDS011;6870;50.944;6.932;2022-08-11T00:31:46;3.20;;;2.33;;
7340;SDS011;6870;50.944;6.932;2022-08-11T00:34:19;4.77;;;2.40;;
7340;SDS011;6870;50.944;6.932;2022-08-11T00:36:52;4.80;;;2.93;;
7340;SDS011;6870;50.944;6.932;2022-08-11T00:39:24;7.50;;;2.80;;
7340;SDS011;6870;50.944;6.932;2022-08-11T00:41:58;7.07;;;2.30;;
7340;SDS011;6870;50.944;6.932;2022-08-11T00:44:41;5.97;;;2.40;;
7340;SDS011;6870;50.944;6.932;2022-08-11T00:47:26;11.90;;;3.40;;
7340;SDS011;6870;50.944;6.932;2022-08-11T00:50:13;9.60;;;3.30;;
7340;SDS011;6870;50.944;6.932;2022-08-11T00:52:58;12.63;;;3.00;;
7340;SDS011;6870;50.944;6.932;2022-08-11T00:59:25;9.07;;;2.50;;
7340;SDS011;6870;50.944;6.932;2022-08-11T01:02:38;21.60;;;3.57;;
7340;SDS011;6870;50.944;6.932;2022-08-11T01:08:57;6.73;;;3.10;;
7340;SDS011;6870;50.944;6.932;2022-08-11T01:11:55;7.23;;;2.33;;
7340;SDS011;6870;50.944;6.932;2022-08-11T01:22:25;12.20;;;3.00;;
7340;SDS011;6870;50.944;6.932;2022-08-11T01:29:07;8.50;;;2.73;;
7340;SDS011;6870;50.944;6.932;2022-08-11T01:39:30;5.23;;;2.53;;
7340;SDS011;6870;50.944;6.932;2022-08-11T01:42:48;8.60;;;2.50;;
7340;SDS011;6870;50.944;6.932;2022-08-11T01:45:49;9.00;;;2.73;;
7340;SDS011;6870;50.944;6.932;2022-08-11T01:48:27;9.50;;;3.17;;
7340;SDS011;6870;50.944;6.932;2022-08-11T01:51:13;5.70;;;3.00;;
7340;SDS011;6870;50.944;6.932;2022-08-11T01:53:52;5.43;;;2.33;;
7340;SDS011;6870;50.944;6.932;2022-08-11T01:59:25;5.40;;;2.20;;
7340;SDS011;6870;50.944;6.932;2022-08-11T02:02:04;10.57;;;2.73;;
7340;SDS011;6870;50.944;6.932;2022-08-11T02:05:19;10.77;;;2.67;;
7340;SDS011;6870;50.944;6.932;2022-08-11T02:08:07;3.70;;;2.20;;
7340;SDS011;6870;50.944;6.932;2022-08-11T02:11:04;7.93;;;2.70;;
7340;SDS011;6870;50.944;6.932;2022-08-11T02:14:10;5.77;;;2.40;;
7340;SDS011;6870;50.944;6.932;2022-08-11T02:16:47;7.90;;;2.40;;
7340;SDS011;6870;50.944;6.932;2022-08-11T02:19:32;4.10;;;2.53;;
7340;SDS011;6870;50.944;6.932;2022-08-11T02:22:39;7.83;;;2.40;;
7340;SDS011;6870;50.944;6.932;2022-08-11T02:25:35;7.97;;;2.73;;
7340;SDS011;6870;50.944;6.932;2022-08-11T02:28:17;5.07;;;2.43;;
7340;SDS011;6870;50.944;6.932;2022-08-11T02:30:53;7.87;;;2.40;;
7340;SDS011;6870;50.944;6.932;2022-08-11T02:34:23;6.43;;;2.50;;
7340;SDS011;6870;50.944;6.932;2022-08-11T02:37:09;5.50;;;3.10;;
7340;SDS011;6870;50.944;6.932;2022-08-11T02:39:54;8.93;;;2.47;;
7340;SDS011;6870;50.944;6.932;2022-08-11T02:42:38;4.07;;;2.67;;
7340;SDS011;6870;50.944;6.932;2022-08-11T02:45:38;5.70;;;2.30;;
7340;SDS011;6870;50.944;6.932;2022-08-11T02:48:27;8.00;;;2.50;;
7340;SDS011;6870;50.944;6.932;2022-08-11T02:51:24;7.33;;;2.37;;
7340;SDS011;6870;50.944;6.932;2022-08-11T02:54:04;5.47;;;2.57;;
7340;SDS011;6870;50.944;6.932;2022-08-11T02:56:40;5.13;;;2.77;;
7340;SDS011;6870;50.944;6.932;2022-08-11T02:59:23;7.73;;;2.90;;
7340;SDS011;6870;50.944;6.932;2022-08-11T03:02:23;3.40;;;2.27;;
7340;SDS011;6870;50.944;6.932;2022-08-11T03:05:13;3.73;;;2.17;;
7340;SDS011;6870;50.944;6.932;2022-08-11T03:07:59;7.33;;;3.10;;
7340;SDS011;6870;50.944;6.932;2022-08-11T03:10:47;9.63;;;2.43;;
7340;SDS011;6870;50.944;6.932;2022-08-11T03:13:45;5.50;;;2.40;;
7340;SDS011;6870;50.944;6.932;2022-08-11T03:16:45;4.40;;;2.50;;
7340;SDS011;6870;50.944;6.932;2022-08-11T03:19:25;10.80;;;2.97;;
7340;SDS011;6870;50.944;6.932;2022-08-11T03:22:06;4.93;;;1.83;;
7340;SDS011;6870;50.944;6.932;2022-08-11T03:24:42;4.17;;;2.23;;
7340;SDS011;6870;50.944;6.932;2022-08-11T03:27:26;2.50;;;2.10;;
7340;SDS011;6870;50.944;6.932;2022-08-11T03:30:04;5.27;;;2.70;;
7340;SDS011;6870;50.944;6.932;2022-08-11T03:32:40;4.90;;;2.17;;
7340;SDS011;6870;50.944;6.932;2022-08-11T03:35:36;4.13;;;2.47;;
7340;SDS011;6870;50.944;6.932;2022-08-11T03:38:11;2.80;;;2.23;;
7340;SDS011;6870;50.944;6.932;2022-08-11T03:40:47;8.03;;;2.40;;
7340;SDS011;6870;50.944;6.932;2022-08-11T03:44:17;3.93;;;2.30;;
7340;SDS011;6870;50.944;6.932;2022-08-11T03:53:43;6.77;;;2.43;;
7340;SDS011;6870;50.944;6.932;2022-08-11T03:56:51;7.53;;;2.73;;
7340;SDS011;6870;50.944;6.932;2022-08-11T04:00:18;4.83;;;2.00;;
7340;SDS011;6870;50.944;6.932;2022-08-11T04:03:33;6.07;;;3.03;;
7340;SDS011;6870;50.944;6.932;2022-08-11T04:06:47;6.20;;;3.13;;
7340;SDS011;6870;50.944;6.932;2022-08-11T04:13:28;3.33;;;2.10;;
7340;SDS011;6870;50.944;6.932;2022-08-11T04:16:29;6.57;;;2.73;;
7340;SDS011;6870;50.944;6.932;2022-08-11T04:19:16;7.33;;;2.47;;
7340;SDS011;6870;50.944;6.932;2022-08-11T04:22:34;5.33;;;2.30;;
7340;SDS011;6870;50.944;6.932;2022-08-11T04:25:34;3.70;;;2.10;;
7340;SDS011;6870;50.944;6.932;2022-08-11T04:28:48;6.17;;;2.90;;
7340;SDS011;6870;50.944;6.932;2022-08-11T04:31:38;4.17;;;2.70;;
7340;SDS011;6870;50.944;6.932;2022-08-11T04:34:36;7.13;;;2.43;;
7340;SDS011;6870;50.944;6.932;2022-08-11T04:40:54;4.13;;;2.07;;
7340;SDS011;6870;50.944;6.932;2022-08-11T04:47:14;4.80;;;2.50;;
7340;SDS011;6870;50.944;6.932;2022-08-11T04:50:36;2.43;;;2.03;;
7340;SDS011;6870;50.944;6.932;2022-08-11T04:53:49;3.63;;;2.63;;
7340;SDS011;6870;50.944;6.932;2022-08-11T04:56:44;4.03;;;2.40;;
7340;SDS011;6870;50.944;6.932;2022-08-11T04:59:39;4.03;;;2.23;;
7340;SDS011;6870;50.944;6.932;2022-08-11T05:09:41;5.17;;;3.20;;
7340;SDS011;6870;50.944;6.932;2022-08-11T05:12:35;6.70;;;2.33;;
7340;SDS011;6870;50.944;6.932;2022-08-11T05:15:11;4.70;;;2.23;;
7340;SDS011;6870;50.944;6.932;2022-08-11T05:18:11;4.50;;;2.90;;
7340;SDS011;6870;50.944;6.932;2022-08-11T05:21:02;6.73;;;2.00;;
7340;SDS011;6870;50.944;6.932;2022-08-11T05:23:55;4.00;;;2.77;;
7340;SDS011;6870;50.944;6.932;2022-08-11T05:26:48;4.43;;;2.33;;
7340;SDS011;6870;50.944;6.932;2022-08-11T05:29:40;6.40;;;2.13;;
7340;SDS011;6870;50.944;6.932;2022-08-11T05:32:32;7.83;;;2.80;;
7340;SDS011;6870;50.944;6.932;2022-08-11T05:35:29;9.80;;;3.07;;
7340;SDS011;6870;50.944;6.932;2022-08-11T05:38:24;6.03;;;2.73;;
7340;SDS011;6870;50.944;6.932;2022-08-11T05:41:12;12.43;;;3.30;;
7340;SDS011;6870;50.944;6.932;2022-08-11T05:44:01;7.10;;;3.47;;
7340;SDS011;6870;50.944;6.932;2022-08-11T05:46:48;3.67;;;3.37;;
7340;SDS011;6870;50.944;6.932;2022-08-11T05:49:35;7.80;;;3.60;;
7340;SDS011;6870;50.944;6.932;2022-08-11T05:52:23;3.67;;;3.23;;
7340;SDS011;6870;50.944;6.932;2022-08-11T05:55:21;7.37;;;4.30;;
7340;SDS011;6870;50.944;6.932;2022-08-11T05:58:32;9.80;;;3.43;;
7340;SDS011;6870;50.944;6.932;2022-08-11T06:01:09;4.13;;;3.20;;
7340;SDS011;6870;50.944;6.932;2022-08-11T06:03:41;5.57;;;3.77;;
7340;SDS011;6870;50.944;6.932;2022-08-11T06:06:29;5.47;;;3.47;;
7340;SDS011;6870;50.944;6.932;2022-08-11T06:08:58;4.83;;;3.80;;
7340;SDS011;6870;50.944;6.932;2022-08-11T06:11:27;6.00;;;3.73;;
7340;SDS011;6870;50.944;6.932;2022-08-11T06:14:09;7.70;;;3.37;;
7340;SDS011;6870;50.944;6.932;2022-08-11T06:16:40;6.27;;;3.30;;
7340;SDS011;6870;50.944;6.932;2022-08-11T06:19:09;6.17;;;3.50;;
7340;SDS011;6870;50.944;6.932;2022-08-11T06:21:42;9.53;;;3.70;;
7340;SDS011;6870;50.944;6.932;2022-08-11T06:24:12;5.40;;;3.40;;
7340;SDS011;6870;50.944;6.932;2022-08-11T06:26:46;3.90;;;3.60;;
7340;SDS011;6870;50.944;6.932;2022-08-11T06:29:37;6.40;;;3.47;;
7340;SDS011;6870;50.944;6.932;2022-08-11T06:32:23;6.30;;;3.97;;
7340;SDS011;6870;50.944;6.932;2022-08-11T06:35:06;5.37;;;3.70;;
7340;SDS011;6870;50.944;6.932;2022-08-11T06:37:45;7.90;;;3.93;;
7340;SDS011;6870;50.944;6.932;2022-08-11T06:40:39;4.93;;;3.73;;
7340;SDS011;6870;50.944;6.932;2022-08-11T06:43:37;3.33;;;3.00;;
7340;SDS011;6870;50.944;6.932;2022-08-11T06:46:23;7.13;;;3.47;;
7340;SDS011;6870;50.944;6.932;2022-08-11T06:48:57;5.53;;;3.70;;
7340;SDS011;6870;50.944;6.932;2022-08-11T06:51:28;5.07;;;3.90;;
7340;SDS011;6870;50.944;6.932;2022-08-11T06:53:59;3.87;;;3.57;;
7340;SDS011;6870;50.944;6.932;2022-08-11T06:56:31;4.20;;;3.60;;
7340;SDS011;6870;50.944;6.932;2022-08-11T06:59:40;5.90;;;4.10;;
7340;SDS011;6870;50.944;6.932;2022-08-11T07:02:29;15.83;;;3.93;;
7340;SDS011;6870;50.944;6.932;2022-08-11T07:05:02;6.97;;;3.93;;
7340;SDS011;6870;50.944;6.932;2022-08-11T07:14:40;3.83;;;3.07;;
7340;SDS011;6870;50.944;6.932;2022-08-11T07:17:48;7.40;;;4.60;;
7340;SDS011;6870;50.944;6.932;2022-08-11T07:20:39;6.83;;;3.77;;
7340;SDS011;6870;50.944;6.932;2022-08-11T07:23:28;4.37;;;3.53;;
7340;SDS011;6870;50.944;6.932;2022-08-11T07:26:18;5.00;;;4.30;;
7340;SDS011;6870;50.944;6.932;2022-08-11T07:29:09;9.43;;;4.00;;
7340;SDS011;6870;50.944;6.932;2022-08-11T07:31:40;8.80;;;4.40;;
7340;SDS011;6870;50.944;6.932;2022-08-11T07:34:16;12.33;;;3.33;;
7340;SDS011;6870;50.944;6.932;2022-08-11T07:36:51;7.50;;;4.00;;
7340;SDS011;6870;50.944;6.932;2022-08-11T07:39:23;9.77;;;3.50;;
7340;SDS011;6870;50.944;6.932;2022-08-11T07:41:54;5.50;;;3.57;;
7340;SDS011;6870;50.944;6.932;2022-08-11T07:44:25;10.47;;;3.97;;
7340;SDS011;6870;50.944;6.932;2022-08-11T07:47:00;7.17;;;4.00;;
7340;SDS011;6870;50.944;6.932;2022-08-11T07:49:47;5.50;;;3.60;;
7340;SDS011;6870;50.944;6.932;2022-08-11T07:52:37;4.70;;;3.80;;
7340;SDS011;6870;50.944;6.932;2022-08-11T07:55:07;10.47;;;4.07;;
7340;SDS011;6870;50.944;6.932;2022-08-11T07:57:43;6.47;;;4.47;;
7340;SDS011;6870;50.944;6.932;2022-08-11T08:00:46;4.07;;;3.60;;
7340;SDS011;6870;50.944;6.932;2022-08-11T08:03:48;4.57;;;3.63;;
7340;SDS011;6870;50.944;6.932;2022-08-11T08:06:34;5.73;;;3.10;;
7340;SDS011;6870;50.944;6.932;2022-08-11T08:09:23;4.37;;;3.97;;
7340;SDS011;6870;50.944;6.932;2022-08-11T08:12:10;5.67;;;3.37;;
7340;SDS011;6870;50.944;6.932;2022-08-11T08:14:57;4.77;;;3.80;;
7340;SDS011;6870;50.944;6.932;2022-08-11T08:17:43;3.77;;;3.37;;
7340;SDS011;6870;50.944;6.932;2022-08-11T08:20:38;4.03;;;3.13;;
7340;SDS011;6870;50.944;6.932;2022-08-11T08:23:12;4.13;;;3.20;;
7340;SDS011;6870;50.944;6.932;2022-08-11T08:25:43;4.17;;;3.30;;
7340;SDS011;6870;50.944;6.932;2022-08-11T08:28:14;4.20;;;3.73;;
7340;SDS011;6870;50.944;6.932;2022-08-11T08:30:44;5.10;;;3.47;;
7340;SDS011;6870;50.944;6.932;2022-08-11T08:33:17;6.73;;;3.90;;
7340;SDS011;6870;50.944;6.932;2022-08-11T08:35:49;7.60;;;3.43;;
7340;SDS011;6870;50.944;6.932;2022-08-11T08:38:38;4.13;;;3.77;;
7340;SDS011;6870;50.944;6.932;2022-08-11T08:41:08;3.93;;;3.57;;
7340;SDS011;6870;50.944;6.932;2022-08-11T08:43:42;3.80;;;3.50;;
7340;SDS011;6870;50.944;6.932;2022-08-11T08:46:15;3.80;;;3.40;;
7340;SDS011;6870;50.944;6.932;2022-08-11T08:48:51;9.03;;;3.57;;
7340;SDS011;6870;50.944;6.932;2022-08-11T08:51:25;7.70;;;4.23;;
7340;SDS011;6870;50.944;6.932;2022-08-11T08:54:22;4.60;;;4.03;;
7340;SDS011;6870;50.944;6.932;2022-08-11T08:56:58;5.63;;;4.00;;
7340;SDS011;6870;50.944;6.932;2022-08-11T08:59:30;4.10;;;3.70;;
7340;SDS011;6870;50.944;6.932;2022-08-11T09:02:14;5.40;;;3.80;;
7340;SDS011;6870;50.944;6.932;2022-08-11T09:04:59;4.30;;;3.90;;
7340;SDS011;6870;50.944;6.932;2022-08-11T09:07:28;6.60;;;3.60;;
7340;SDS011;6870;50.944;6.932;2022-08-11T09:10:06;5.43;;;3.80;;
7340;SDS011;6870;50.944;6.932;2022-08-11T09:12:38;5.20;;;3.23;;
7340;SDS011;6870;50.944;6.932;2022-08-11T09:15:09;3.30;;;3.00;;
7340;SDS011;6870;50.944;6.932;2022-08-11T09:17:41;3.20;;;2.60;;
7340;SDS011;6870;50.944;6.932;2022-08-11T09:20:13;4.73;;;2.97;;
7340;SDS011;6870;50.944;6.932;2022-08-11T09:22:46;4.77;;;3.30;;
7340;SDS011;6870;50.944;6.932;2022-08-11T09:25:55;7.13;;;3.70;;
7340;SDS011;6870;50.944;6.932;2022-08-11T09:28:43;10.77;;;3.77;;
7340;SDS011;6870;50.944;6.932;2022-08-11T09:31:15;5.03;;;3.40;;
7340;SDS011;6870;50.944;6.932;2022-08-11T09:33:47;2.73;;;2.53;;
7340;SDS011;6870;50.944;6.932;2022-08-11T09:36:20;2.90;;;2.60;;
7340;SDS011;6870;50.944;6.932;2022-08-11T09:39:06;3.67;;;3.37;;
7340;SDS011;6870;50.944;6.932;2022-08-11T09:41:57;4.47;;;2.93;;
7340;SDS011;6870;50.944;6.932;2022-08-11T09:44:32;5.53;;;3.60;;
7340;SDS011;6870;50.944;6.932;2022-08-11T09:47:18;4.60;;;3.57;;
7340;SDS011;6870;50.944;6.932;2022-08-11T09:49:51;4.27;;;3.23;;
7340;SDS011;6870;50.944;6.932;2022-08-11T09:52:25;3.80;;;3.23;;
7340;SDS011;6870;50.944;6.932;2022-08-11T09:54:56;2.70;;;2.27;;
7340;SDS011;6870;50.944;6.932;2022-08-11T09:57:24;3.27;;;2.70;;
7340;SDS011;6870;50.944;6.932;2022-08-11T10:00:12;4.17;;;2.70;;
7340;SDS011;6870;50.944;6.932;2022-08-11T10:02:43;3.20;;;2.90;;
7340;SDS011;6870;50.944;6.932;2022-08-11T10:05:14;5.33;;;3.03;;
7340;SDS011;6870;50.944;6.932;2022-08-11T10:08:03;3.00;;;2.80;;
7340;SDS011;6870;50.944;6.932;2022-08-11T10:10:34;4.17;;;2.63;;
7340;SDS011;6870;50.944;6.932;2022-08-11T10:13:06;8.20;;;3.10;;
7340;SDS011;6870;50.944;6.932;2022-08-11T10:15:59;7.40;;;2.80;;
7340;SDS011;6870;50.944;6.932;2022-08-11T10:18:41;2.53;;;2.33;;
7340;SDS011;6870;50.944;6.932;2022-08-11T10:21:23;5.10;;;2.90;;
7340;SDS011;6870;50.944;6.932;2022-08-11T10:23:57;8.67;;;3.03;;
7340;SDS011;6870;50.944;6.932;2022-08-11T10:26:44;3.00;;;2.80;;
7340;SDS011;6870;50.944;6.932;2022-08-11T10:29:21;5.50;;;2.70;;
7340;SDS011;6870;50.944;6.932;2022-08-11T10:32:19;5.20;;;3.50;;
7340;SDS011;6870;50.944;6.932;2022-08-11T10:35:24;6.73;;;3.80;;
7340;SDS011;6870;50.944;6.932;2022-08-11T10:37:54;2.90;;;2.60;;
7340;SDS011;6870;50.944;6.932;2022-08-11T10:40:35;3.07;;;2.77;;
7340;SDS011;6870;50.944;6.932;2022-08-11T10:43:05;5.10;;;3.00;;
7340;SDS011;6870;50.944;6.932;2022-08-11T10:45:44;4.97;;;3.00;;
7340;SDS011;6870;50.944;6.932;2022-08-11T10:48:34;3.20;;;2.63;;
7340;SDS011;6870;50.944;6.932;2022-08-11T10:51:04;3.50;;;3.00;;
7340;SDS011;6870;50.944;6.932;2022-08-11T10:53:41;2.50;;;2.30;;
7340;SDS011;6870;50.944;6.932;2022-08-11T10:56:31;3.57;;;3.10;;
7340;SDS011;6870;50.944;6.932;2022-08-11T10:59:21;2.97;;;2.40;;
7340;SDS011;6870;50.944;6.932;2022-08-11T11:01:51;3.50;;;3.20;;
7340;SDS011;6870;50.944;6.932;2022-08-11T11:04:23;5.27;;;2.60;;
7340;SDS011;6870;50.944;6.932;2022-08-11T11:07:02;9.00;;;3.03;;
7340;SDS011;6870;50.944;6.932;2022-08-11T11:09:39;3.30;;;3.00;;
7340;SDS011;6870;50.944;6.932;2022-08-11T11:12:15;4.30;;;2.67;;
7340;SDS011;6870;50.944;6.932;2022-08-11T11:15:06;3.60;;;3.00;;
7340;SDS011;6870;50.944;6.932;2022-08-11T11:17:55;2.57;;;2.37;;
7340;SDS011;6870;50.944;6.932;2022-08-11T11:20:34;2.40;;;2.20;;
7340;SDS011;6870;50.944;6.932;2022-08-11T11:23:13;8.50;;;2.93;;
7340;SDS011;6870;50.944;6.932;2022-08-11T11:25:51;3.37;;;2.20;;
7340;SDS011;6870;50.944;6.932;2022-08-11T11:29:12;2.73;;;2.53;;
7340;SDS011;6870;50.944;6.932;2022-08-11T11:32:23;3.10;;;2.43;;
7340;SDS011;6870;50.944;6.932;2022-08-11T11:35:01;3.23;;;2.50;;
7340;SDS011;6870;50.944;6.932;2022-08-11T11:37:49;2.77;;;2.57;;
7340;SDS011;6870;50.944;6.932;2022-08-11T11:40:29;3.13;;;2.80;;
7340;SDS011;6870;50.944;6.932;2022-08-11T11:42:58;2.83;;;2.63;;
7340;SDS011;6870;50.944;6.932;2022-08-11T11:45:28;4.37;;;2.87;;
7340;SDS011;6870;50.944;6.932;2022-08-11T11:47:58;3.93;;;2.57;;
7340;SDS011;6870;50.944;6.932;2022-08-11T11:50:28;5.90;;;3.10;;
7340;SDS011;6870;50.944;6.932;2022-08-11T11:53:02;3.10;;;2.60;;
7340;SDS011;6870;50.944;6.932;2022-08-11T11:55:33;3.30;;;2.53;;
7340;SDS011;6870;50.944;6.932;2022-08-11T11:58:02;3.13;;;2.80;;
7340;SDS011;6870;50.944;6.932;2022-08-11T12:00:50;3.83;;;3.00;;
7340;SDS011;6870;50.944;6.932;2022-08-11T12:03:36;2.70;;;2.50;;
7340;SDS011;6870;50.944;6.932;2022-08-11T12:06:07;3.67;;;2.57;;
7340;SDS011;6870;50.944;6.932;2022-08-11T12:08:40;2.80;;;2.07;;
7340;SDS011;6870;50.944;6.932;2022-08-11T12:11:10;2.50;;;2.30;;
7340;SDS011;6870;50.944;6.932;2022-08-11T12:13:57;5.27;;;2.80;;
7340;SDS011;6870;50.944;6.932;2022-08-11T12:16:36;2.57;;;2.33;;
7340;SDS011;6870;50.944;6.932;2022-08-11T12:19:08;8.10;;;3.27;;
7340;SDS011;6870;50.944;6.932;2022-08-11T12:21:39;3.50;;;2.80;;
7340;SDS011;6870;50.944;6.932;2022-08-11T12:24:31;3.90;;;2.70;;
7340;SDS011;6870;50.944;6.932;2022-08-11T12:27:19;3.63;;;2.80;;
7340;SDS011;6870;50.944;6.932;2022-08-11T12:29:52;2.93;;;2.57;;
7340;SDS011;6870;50.944;6.932;2022-08-11T12:32:25;3.33;;;3.03;;
7340;SDS011;6870;50.944;6.932;2022-08-11T12:34:56;3.40;;;3.10;;
7340;SDS011;6870;50.944;6.932;2022-08-11T12:37:26;3.43;;;2.67;;
7340;SDS011;6870;50.944;6.932;2022-08-11T12:40:00;7.43;;;3.50;;
7340;SDS011;6870;50.944;6.932;2022-08-11T12:43:10;3.20;;;2.87;;
7340;SDS011;6870;50.944;6.932;2022-08-11T12:46:06;4.17;;;3.30;;
7340;SDS011;6870;50.944;6.932;2022-08-11T12:48:38;3.27;;;2.70;;
7340;SDS011;6870;50.944;6.932;2022-08-11T12:51:31;3.00;;;2.67;;
7340;SDS011;6870;50.944;6.932;2022-08-11T12:54:52;3.20;;;3.00;;
7340;SDS011;6870;50.944;6.932;2022-08-11T12:57:28;3.37;;;3.07;;
7340;SDS011;6870;50.944;6.932;2022-08-11T13:00:18;3.20;;;2.70;;
7340;SDS011;6870;50.944;6.932;2022-08-11T13:03:05;3.07;;;2.60;;
7340;SDS011;6870;50.944;6.932;2022-08-11T13:05:53;3.40;;;3.10;;
7340;SDS011;6870;50.944;6.932;2022-08-11T13:08:23;3.53;;;2.60;;
7340;SDS011;6870;50.944;6.932;2022-08-11T13:10:54;4.47;;;2.87;;
7340;SDS011;6870;50.944;6.932;2022-08-11T13:13:44;7.20;;;2.90;;
7340;SDS011;6870;50.944;6.932;2022-08-11T13:16:21;5.93;;;2.70;;
7340;SDS011;6870;50.944;6.932;2022-08-11T13:18:52;3.00;;;2.70;;
7340;SDS011;6870;50.944;6.932;2022-08-11T13:21:20;2.80;;;2.60;;
7340;SDS011;6870;50.944;6.932;2022-08-11T13:23:49;4.23;;;2.63;;
7340;SDS011;6870;50.944;6.932;2022-08-11T13:26:29;2.83;;;2.63;;
7340;SDS011;6870;50.944;6.932;2022-08-11T13:29:17;4.67;;;2.80;;
7340;SDS011;6870;50.944;6.932;2022-08-11T13:31:47;3.07;;;2.40;;
7340;SDS011;6870;50.944;6.932;2022-08-11T13:34:15;2.60;;;2.40;;
7340;SDS011;6870;50.944;6.932;2022-08-11T13:36:46;2.53;;;2.33;;
7340;SDS011;6870;50.944;6.932;2022-08-11T13:39:18;2.77;;;2.57;;
7340;SDS011;6870;50.944;6.932;2022-08-11T13:41:50;3.10;;;2.80;;
7340;SDS011;6870;50.944;6.932;2022-08-11T13:44:21;3.60;;;2.70;;
7340;SDS011;6870;50.944;6.932;2022-08-11T13:46:53;4.53;;;2.40;;
7340;SDS011;6870;50.944;6.932;2022-08-11T13:49:26;3.13;;;2.80;;
7340;SDS011;6870;50.944;6.932;2022-08-11T13:51:56;4.90;;;3.00;;
7340;SDS011;6870;50.944;6.932;2022-08-11T13:54:26;2.73;;;2.53;;
7340;SDS011;6870;50.944;6.932;2022-08-11T13:57:00;4.60;;;2.77;;
7340;SDS011;6870;50.944;6.932;2022-08-11T13:59:40;2.90;;;2.53;;
7340;SDS011;6870;50.944;6.932;2022-08-11T14:02:18;2.73;;;2.50;;
7340;SDS011;6870;50.944;6.932;2022-08-11T14:04:57;3.93;;;2.90;;
7340;SDS011;6870;50.944;6.932;2022-08-11T14:07:33;5.57;;;3.00;;
7340;SDS011;6870;50.944;6.932;2022-08-11T14:10:05;3.37;;;2.90;;
7340;SDS011;6870;50.944;6.932;2022-08-11T14:12:36;5.50;;;2.97;;
7340;SDS011;6870;50.944;6.932;2022-08-11T14:15:28;4.43;;;2.80;;
7340;SDS011;6870;50.944;6.932;2022-08-11T14:18:02;2.60;;;2.40;;
7340;SDS011;6870;50.944;6.932;2022-08-11T14:20:36;3.30;;;2.90;;
7340;SDS011;6870;50.944;6.932;2022-08-11T14:23:26;3.17;;;2.80;;
7340;SDS011;6870;50.944;6.932;2022-08-11T14:25:57;3.03;;;2.77;;
7340;SDS011;6870;50.944;6.932;2022-08-11T14:28:44;5.13;;;2.70;;
7340;SDS011;6870;50.944;6.932;2022-08-11T14:31:15;3.60;;;3.30;;
7340;SDS011;6870;50.944;6.932;2022-08-11T14:33:43;5.80;;;2.90;;
7340;SDS011;6870;50.944;6.932;2022-08-11T14:36:28;5.87;;;3.83;;
7340;SDS011;6870;50.944;6.932;2022-08-11T14:39:01;3.53;;;3.23;;
7340;SDS011;6870;50.944;6.932;2022-08-11T14:41:34;5.60;;;2.87;;
7340;SDS011;6870;50.944;6.932;2022-08-11T14:44:38;4.83;;;2.67;;
7340;SDS011;6870;50.944;6.932;2022-08-11T14:47:44;4.63;;;3.10;;
7340;SDS011;6870;50.944;6.932;2022-08-11T14:50:18;4.10;;;3.37;;
7340;SDS011;6870;50.944;6.932;2022-08-11T14:52:50;4.40;;;3.20;;
7340;SDS011;6870;50.944;6.932;2022-08-11T14:55:22;3.27;;;2.97;;
7340;SDS011;6870;50.944;6.932;2022-08-11T14:58:13;2.87;;;2.67;;
7340;SDS011;6870;50.944;6.932;2022-08-11T15:00:44;4.50;;;3.63;;
7340;SDS011;6870;50.944;6.932;2022-08-11T15:03:15;5.53;;;3.53;;
7340;SDS011;6870;50.944;6.932;2022-08-11T15:05:47;4.93;;;3.90;;
7340;SDS011;6870;50.944;6.932;2022-08-11T15:08:23;3.30;;;3.10;;
7340;SDS011;6870;50.944;6.932;2022-08-11T15:11:13;3.80;;;3.37;;
7340;SDS011;6870;50.944;6.932;2022-08-11T15:14:01;5.20;;;2.80;;
7340;SDS011;6870;50.944;6.932;2022-08-11T15:16:33;3.17;;;2.83;;
7340;SDS011;6870;50.944;6.932;2022-08-11T15:19:22;4.47;;;3.20;;
7340;SDS011;6870;50.944;6.932;2022-08-11T15:22:06;4.37;;;3.00;;
7340;SDS011;6870;50.944;6.932;2022-08-11T15:24:53;5.50;;;2.80;;
7340;SDS011;6870;50.944;6.932;2022-08-11T15:27:24;3.37;;;2.37;;
7340;SDS011;6870;50.944;6.932;2022-08-11T15:30:12;4.40;;;2.97;;
7340;SDS011;6870;50.944;6.932;2022-08-11T15:33:00;3.10;;;2.80;;
7340;SDS011;6870;50.944;6.932;2022-08-11T15:35:52;3.30;;;3.00;;
7340;SDS011;6870;50.944;6.932;2022-08-11T15:38:41;3.47;;;3.03;;
7340;SDS011;6870;50.944;6.932;2022-08-11T15:41:20;3.23;;;3.03;;
7340;SDS011;6870;50.944;6.932;2022-08-11T15:44:25;3.57;;;2.90;;
7340;SDS011;6870;50.944;6.932;2022-08-11T15:47:32;3.67;;;2.80;;
7340;SDS011;6870;50.944;6.932;2022-08-11T15:50:07;3.37;;;3.07;;
7340;SDS011;6870;50.944;6.932;2022-08-11T15:52:47;5.17;;;3.23;;
7340;SDS011;6870;50.944;6.932;2022-08-11T15:55:20;4.30;;;3.10;;
7340;SDS011;6870;50.944;6.932;2022-08-11T15:57:50;3.10;;;2.60;;
7340;SDS011;6870;50.944;6.932;2022-08-11T16:00:38;4.50;;;3.10;;
7340;SDS011;6870;50.944;6.932;2022-08-11T16:03:35;5.17;;;3.40;;
7340;SDS011;6870;50.944;6.932;2022-08-11T16:06:34;3.60;;;3.00;;
7340;SDS011;6870;50.944;6.932;2022-08-11T16:09:16;3.77;;;2.90;;
7340;SDS011;6870;50.944;6.932;2022-08-11T16:11:49;3.40;;;3.10;;
7340;SDS011;6870;50.944;6.932;2022-08-11T16:14:19;4.57;;;3.43;;
7340;SDS011;6870;50.944;6.932;2022-08-11T16:17:08;3.17;;;2.87;;
7340;SDS011;6870;50.944;6.932;2022-08-11T16:19:38;3.10;;;2.80;;
7340;SDS011;6870;50.944;6.932;2022-08-11T16:22:09;3.33;;;2.70;;
7340;SDS011;6870;50.944;6.932;2022-08-11T16:24:41;3.57;;;3.30;;
7340;SDS011;6870;50.944;6.932;2022-08-11T16:27:33;6.80;;;3.37;;
7340;SDS011;6870;50.944;6.932;2022-08-11T16:30:12;3.83;;;3.53;;
7340;SDS011;6870;50.944;6.932;2022-08-11T16:32:42;3.70;;;3.03;;
7340;SDS011;6870;50.944;6.932;2022-08-11T16:35:18;4.63;;;3.50;;
7340;SDS011;6870;50.944;6.932;2022-08-11T16:38:08;4.43;;;3.70;;
7340;SDS011;6870;50.944;6.932;2022-08-11T16:40:57;4.23;;;2.80;;
7340;SDS011;6870;50.944;6.932;2022-08-11T16:43:27;3.63;;;3.33;;
7340;SDS011;6870;50.944;6.932;2022-08-11T16:46:17;3.53;;;3.10;;
7340;SDS011;6870;50.944;6.932;2022-08-11T16:49:05;4.13;;;3.40;;
7340;SDS011;6870;50.944;6.932;2022-08-11T16:51:35;4.23;;;3.83;;
7340;SDS011;6870;50.944;6.932;2022-08-11T16:54:04;3.63;;;3.33;;
7340;SDS011;6870;50.944;6.932;2022-08-11T16:56:35;3.57;;;3.27;;
7340;SDS011;6870;50.944;6.932;2022-08-11T16:59:09;7.03;;;3.93;;
7340;SDS011;6870;50.944;6.932;2022-08-11T17:01:45;13.63;;;5.03;;
7340;SDS011;6870;50.944;6.932;2022-08-11T17:04:20;17.33;;;6.40;;
7340;SDS011;6870;50.944;6.932;2022-08-11T17:07:13;21.33;;;6.90;;
7340;SDS011;6870;50.944;6.932;2022-08-11T17:10:10;12.43;;;5.93;;
7340;SDS011;6870;50.944;6.932;2022-08-11T17:13:21;9.53;;;5.40;;
7340;SDS011;6870;50.944;6.932;2022-08-11T17:15:57;7.00;;;5.00;;
7340;SDS011;6870;50.944;6.932;2022-08-11T17:18:47;10.33;;;4.23;;
7340;SDS011;6870;50.944;6.932;2022-08-11T17:21:22;8.20;;;4.87;;
7340;SDS011;6870;50.944;6.932;2022-08-11T17:23:54;6.37;;;5.10;;
7340;SDS011;6870;50.944;6.932;2022-08-11T17:26:29;7.47;;;4.73;;
7340;SDS011;6870;50.944;6.932;2022-08-11T17:29:17;7.10;;;4.23;;
7340;SDS011;6870;50.944;6.932;2022-08-11T17:31:50;8.90;;;4.33;;
7340;SDS011;6870;50.944;6.932;2022-08-11T17:34:36;6.57;;;3.63;;
7340;SDS011;6870;50.944;6.932;2022-08-11T17:37:27;4.30;;;3.90;;
7340;SDS011;6870;50.944;6.932;2022-08-11T17:39:59;7.63;;;3.83;;
7340;SDS011;6870;50.944;6.932;2022-08-11T17:42:31;6.70;;;3.77;;
7340;SDS011;6870;50.944;6.932;2022-08-11T17:45:21;4.50;;;4.10;;
7340;SDS011;6870;50.944;6.932;2022-08-11T17:48:19;7.80;;;4.77;;
7340;SDS011;6870;50.944;6.932;2022-08-11T17:50:54;6.23;;;4.30;;
7340;SDS011;6870;50.944;6.932;2022-08-11T17:53:26;4.80;;;3.97;;